sensor_id;sensor_type;location;lat;lon;timestamp;pressure;altitude;pressure_sealevel;temperature;humidity
17936;BME280;9093;52.062;4.508;2023-03-03T00:00:56;102908.03;;;3.20;69.65
17936;BME280;9093;52.062;4.508;2023-03-03T00:03:36;102915.94;;;3.19;69.83
17936;BME280;9093;52.062;4.508;2023-03-03T00:06:17;102908.00;;;3.17;69.49
17936;BME280;9093;52.062;4.508;2023-03-03T00:08:58;102912.41;;;3.17;69.23
17936;BME280;9093;52.062;4.508;2023-03-03T00:11:38;102918.56;;;3.17;69.87
17936;BME280;9093;52.062;4.508;2023-03-03T00:14:24;102912.41;;;3.15;69.79
17936;BME280;9093;52.062;4.508;2023-03-03T00:17:17;102919.44;;;3.15;69.82
17936;BME280;9093;52.062;4.508;2023-03-03T00:19:58;102913.28;;;3.14;69.94
17936;BME280;9093;52.062;4.508;2023-03-03T00:22:41;102920.28;;;3.12;69.53
17936;BME280;9093;52.062;4.508;2023-03-03T00:25:33;102928.16;;;3.11;69.81
17936;BME280;9093;52.062;4.508;2023-03-03T00:28:24;102923.78;;;3.11;69.81
17936;BME280;9093;52.062;4.508;2023-03-03T00:31:14;102929.94;;;3.10;69.73
17936;BME280;9093;52.062;4.508;2023-03-03T00:33:59;102921.09;;;3.07;70.01
17936;BME280;9093;52.062;4.508;2023-03-03T00:36:43;102926.41;;;3.08;69.87
17936;BME280;9093;52.062;4.508;2023-03-03T00:39:44;102920.22;;;3.06;69.87
17936;BME280;9093;52.062;4.508;2023-03-03T00:42:26;102921.13;;;3.10;70.06
17936;BME280;9093;52.062;4.508;2023-03-03T00:45:23;102922.88;;;3.08;69.76
17936;BME280;9093;52.062;4.508;2023-03-03T00:51:01;102927.28;;;3.07;69.94
17936;BME280;9093;52.062;4.508;2023-03-03T00:53:41;102921.94;;;3.04;69.78
17936;BME280;9093;52.062;4.508;2023-03-03T00:56:22;102925.50;;;3.06;69.77
17936;BME280;9093;52.062;4.508;2023-03-03T00:59:03;102914.94;;;3.06;69.97
17936;BME280;9093;52.062;4.508;2023-03-03T01:01:43;102926.41;;;3.08;70.08
17936;BME280;9093;52.062;4.508;2023-03-03T01:04:24;102926.41;;;3.08;69.74
17936;BME280;9093;52.062;4.508;2023-03-03T01:07:04;102925.50;;;3.06;69.86
17936;BME280;9093;52.062;4.508;2023-03-03T01:09:44;102921.09;;;3.07;70.05
17936;BME280;9093;52.062;4.508;2023-03-03T01:12:24;102919.34;;;3.06;70.03
17936;BME280;9093;52.062;4.508;2023-03-03T01:15:06;102928.13;;;3.06;69.82
17936;BME280;9093;52.062;4.508;2023-03-03T01:17:47;102922.00;;;3.07;70.02
17936;BME280;9093;52.062;4.508;2023-03-03T01:20:28;102922.88;;;3.08;70.23
17936;BME280;9093;52.062;4.508;2023-03-03T01:23:08;102922.84;;;3.06;69.95
17936;BME280;9093;52.062;4.508;2023-03-03T01:25:49;102927.22;;;3.04;70.06
17936;BME280;9093;52.062;4.508;2023-03-03T01:28:29;102927.22;;;3.04;70.00
17936;BME280;9093;52.062;4.508;2023-03-03T01:31:09;102925.50;;;3.06;70.34
17936;BME280;9093;52.062;4.508;2023-03-03T01:33:50;102939.59;;;3.08;70.02
17936;BME280;9093;52.062;4.508;2023-03-03T01:36:30;102928.09;;;3.05;70.08
17936;BME280;9093;52.062;4.508;2023-03-03T01:39:11;102929.88;;;3.06;70.20
17936;BME280;9093;52.062;4.508;2023-03-03T01:41:51;102928.09;;;3.05;70.34
17936;BME280;9093;52.062;4.508;2023-03-03T01:44:32;102925.47;;;3.03;70.07
17936;BME280;9093;52.062;4.508;2023-03-03T01:47:21;102927.22;;;3.01;70.23
17936;BME280;9093;52.062;4.508;2023-03-03T01:50:14;102928.06;;;3.00;70.34
17936;BME280;9093;52.062;4.508;2023-03-03T01:52:58;102929.81;;;3.00;70.22
17936;BME280;9093;52.062;4.508;2023-03-03T01:55:40;102924.53;;;3.00;70.06
17936;BME280;9093;52.062;4.508;2023-03-03T01:58:30;102923.66;;;2.96;70.52
17936;BME280;9093;52.062;4.508;2023-03-03T02:01:18;102925.38;;;2.97;70.26
17936;BME280;9093;52.062;4.508;2023-03-03T02:03:59;102931.56;;;2.96;70.28
17936;BME280;9093;52.062;4.508;2023-03-03T02:06:44;102928.00;;;2.94;70.43
17936;BME280;9093;52.062;4.508;2023-03-03T02:09:33;102927.97;;;2.93;70.42
17936;BME280;9093;52.062;4.508;2023-03-03T02:12:16;102920.94;;;2.90;70.37
17936;BME280;9093;52.062;4.508;2023-03-03T02:14:58;102924.47;;;2.91;70.41
17936;BME280;9093;52.062;4.508;2023-03-03T02:17:38;102930.59;;;2.91;70.54
17936;BME280;9093;52.062;4.508;2023-03-03T02:20:34;102916.50;;;2.88;70.32
17936;BME280;9093;52.062;4.508;2023-03-03T02:26:22;102915.59;;;2.86;70.15
17936;BME280;9093;52.062;4.508;2023-03-03T02:29:03;102919.97;;;2.85;70.62
17936;BME280;9093;52.062;4.508;2023-03-03T02:31:43;102915.59;;;2.84;70.53
17936;BME280;9093;52.062;4.508;2023-03-03T02:34:26;102919.09;;;2.84;70.51
17936;BME280;9093;52.062;4.508;2023-03-03T02:37:07;102911.19;;;2.83;70.30
17936;BME280;9093;52.062;4.508;2023-03-03T02:39:47;102921.75;;;2.83;70.63
17936;BME280;9093;52.062;4.508;2023-03-03T02:42:28;102918.22;;;2.82;70.55
17936;BME280;9093;52.062;4.508;2023-03-03T02:45:09;102909.34;;;2.79;70.66
17936;BME280;9093;52.062;4.508;2023-03-03T02:47:50;102912.00;;;2.77;70.50
17936;BME280;9093;52.062;4.508;2023-03-03T02:50:30;102902.28;;;2.75;70.59
17936;BME280;9093;52.062;4.508;2023-03-03T02:53:11;102907.56;;;2.75;70.38
17936;BME280;9093;52.062;4.508;2023-03-03T02:55:51;102909.31;;;2.71;70.62
17936;BME280;9093;52.062;4.508;2023-03-03T02:58:31;102912.78;;;2.69;70.63
17936;BME280;9093;52.062;4.508;2023-03-03T03:01:12;102905.69;;;2.66;70.71
17936;BME280;9093;52.062;4.508;2023-03-03T03:03:52;102909.19;;;2.64;70.61
17936;BME280;9093;52.062;4.508;2023-03-03T03:06:32;102911.84;;;2.64;70.58
17936;BME280;9093;52.062;4.508;2023-03-03T03:09:14;102909.19;;;2.64;70.31
17936;BME280;9093;52.062;4.508;2023-03-03T03:11:54;102916.22;;;2.63;70.70
17936;BME280;9093;52.062;4.508;2023-03-03T03:14:35;102908.28;;;2.62;70.57
17936;BME280;9093;52.062;4.508;2023-03-03T03:17:15;102913.59;;;2.63;70.61
17936;BME280;9093;52.062;4.508;2023-03-03T03:19:56;102918.84;;;2.62;70.77
17936;BME280;9093;52.062;4.508;2023-03-03T03:22:36;102916.19;;;2.62;70.64
17936;BME280;9093;52.062;4.508;2023-03-03T03:25:16;102925.88;;;2.63;70.71
17936;BME280;9093;52.062;4.508;2023-03-03T03:27:56;102920.59;;;2.61;70.84
17936;BME280;9093;52.062;4.508;2023-03-03T03:30:37;102925.88;;;2.61;70.64
17936;BME280;9093;52.062;4.508;2023-03-03T03:33:18;102936.38;;;2.60;70.57
17936;BME280;9093;52.062;4.508;2023-03-03T03:35:59;102930.22;;;2.58;70.69
17936;BME280;9093;52.062;4.508;2023-03-03T03:38:39;102938.94;;;2.54;70.64
17936;BME280;9093;52.062;4.508;2023-03-03T03:41:20;102938.06;;;2.53;70.69
17936;BME280;9093;52.062;4.508;2023-03-03T03:44:00;102937.19;;;2.54;70.69
17936;BME280;9093;52.062;4.508;2023-03-03T03:46:40;102940.78;;;2.58;70.74
17936;BME280;9093;52.062;4.508;2023-03-03T03:49:21;102931.13;;;2.61;70.76
17936;BME280;9093;52.062;4.508;2023-03-03T03:52:01;102935.59;;;2.67;71.09
17936;BME280;9093;52.062;4.508;2023-03-03T03:54:41;102933.03;;;2.73;71.20
17936;BME280;9093;52.062;4.508;2023-03-03T03:57:22;102939.28;;;2.78;71.30
17936;BME280;9093;52.062;4.508;2023-03-03T04:00:04;102944.63;;;2.84;71.28
17936;BME280;9093;52.062;4.508;2023-03-03T04:02:44;102944.63;;;2.87;71.29
17936;BME280;9093;52.062;4.508;2023-03-03T04:05:25;102935.03;;;2.91;71.11
17936;BME280;9093;52.062;4.508;2023-03-03T04:08:05;102939.47;;;2.96;71.19
17936;BME280;9093;52.062;4.508;2023-03-03T04:10:46;102937.75;;;3.01;71.40
17936;BME280;9093;52.062;4.508;2023-03-03T04:13:26;102939.56;;;3.05;71.48
17936;BME280;9093;52.062;4.508;2023-03-03T04:16:10;102946.66;;;3.09;71.55
17936;BME280;9093;52.062;4.508;2023-03-03T04:18:51;102949.34;;;3.14;71.71
17936;BME280;9093;52.062;4.508;2023-03-03T04:21:31;102942.31;;;3.16;71.52
17936;BME280;9093;52.062;4.508;2023-03-03T04:24:12;102945.88;;;3.19;71.83
17936;BME280;9093;52.062;4.508;2023-03-03T04:26:52;102945.00;;;3.20;71.70
17936;BME280;9093;52.062;4.508;2023-03-03T04:29:33;102939.75;;;3.23;71.66
17936;BME280;9093;52.062;4.508;2023-03-03T04:32:13;102948.56;;;3.26;71.70
17936;BME280;9093;52.062;4.508;2023-03-03T04:34:54;102945.06;;;3.27;71.81
17936;BME280;9093;52.062;4.508;2023-03-03T04:37:35;102943.28;;;3.26;71.98
17936;BME280;9093;52.062;4.508;2023-03-03T04:40:16;102945.06;;;3.30;71.67
17936;BME280;9093;52.062;4.508;2023-03-03T04:42:57;102947.75;;;3.31;71.94
17936;BME280;9093;52.062;4.508;2023-03-03T04:45:37;102944.25;;;3.34;72.04
17936;BME280;9093;52.062;4.508;2023-03-03T04:48:18;102944.25;;;3.35;72.16
17936;BME280;9093;52.062;4.508;2023-03-03T04:50:58;102939.84;;;3.36;72.23
17936;BME280;9093;52.062;4.508;2023-03-03T04:53:38;102944.28;;;3.38;72.11
17936;BME280;9093;52.062;4.508;2023-03-03T04:56:19;102943.44;;;3.41;72.29
17936;BME280;9093;52.062;4.508;2023-03-03T04:58:59;102953.13;;;3.43;72.36
17936;BME280;9093;52.062;4.508;2023-03-03T05:01:39;102957.56;;;3.46;72.11
17936;BME280;9093;52.062;4.508;2023-03-03T05:04:20;102958.47;;;3.46;72.39
17936;BME280;9093;52.062;4.508;2023-03-03T05:07:00;102962.88;;;3.49;72.56
17936;BME280;9093;52.062;4.508;2023-03-03T05:09:40;102959.41;;;3.53;72.25
17936;BME280;9093;52.062;4.508;2023-03-03T05:12:21;102958.53;;;3.57;72.34
17936;BME280;9093;52.062;4.508;2023-03-03T05:15:01;102957.69;;;3.58;72.40
17936;BME280;9093;52.062;4.508;2023-03-03T05:17:41;102955.94;;;3.58;72.39
17936;BME280;9093;52.062;4.508;2023-03-03T05:20:23;102954.16;;;3.59;72.64
17936;BME280;9093;52.062;4.508;2023-03-03T05:23:03;102959.47;;;3.62;72.63
17936;BME280;9093;52.062;4.508;2023-03-03T05:25:46;102957.72;;;3.64;72.55
17936;BME280;9093;52.062;4.508;2023-03-03T05:28:26;102950.66;;;3.60;72.53
17936;BME280;9093;52.062;4.508;2023-03-03T05:31:07;102963.00;;;3.64;72.63
17936;BME280;9093;52.062;4.508;2023-03-03T05:33:47;102963.91;;;3.66;72.60
17936;BME280;9093;52.062;4.508;2023-03-03T05:36:27;102959.53;;;3.67;72.66
17936;BME280;9093;52.062;4.508;2023-03-03T05:39:08;102961.28;;;3.69;72.74
17936;BME280;9093;52.062;4.508;2023-03-03T05:41:49;102953.38;;;3.69;73.10
17936;BME280;9093;52.062;4.508;2023-03-03T05:44:29;102951.59;;;3.68;72.85
17936;BME280;9093;52.062;4.508;2023-03-03T05:47:09;102955.09;;;3.67;73.05
17936;BME280;9093;52.062;4.508;2023-03-03T05:49:50;102955.13;;;3.69;73.21
17936;BME280;9093;52.062;4.508;2023-03-03T05:52:30;102956.88;;;3.68;72.94
17936;BME280;9093;52.062;4.508;2023-03-03T05:55:10;102952.50;;;3.70;73.24
17936;BME280;9093;52.062;4.508;2023-03-03T05:57:51;102947.22;;;3.70;72.89
17936;BME280;9093;52.062;4.508;2023-03-03T06:00:31;102954.28;;;3.71;72.91
17936;BME280;9093;52.062;4.508;2023-03-03T06:03:11;102948.97;;;3.71;72.98
17936;BME280;9093;52.062;4.508;2023-03-03T06:05:52;102953.34;;;3.68;72.98
17936;BME280;9093;52.062;4.508;2023-03-03T06:08:32;102960.41;;;3.69;73.26
17936;BME280;9093;52.062;4.508;2023-03-03T06:11:13;102954.22;;;3.68;72.94
17936;BME280;9093;52.062;4.508;2023-03-03T06:13:55;102964.84;;;3.71;73.48
17936;BME280;9093;52.062;4.508;2023-03-03T06:16:36;102968.34;;;3.73;73.34
17936;BME280;9093;52.062;4.508;2023-03-03T06:19:16;102967.50;;;3.74;73.20
17936;BME280;9093;52.062;4.508;2023-03-03T06:21:57;102968.41;;;3.76;73.50
17936;BME280;9093;52.062;4.508;2023-03-03T06:24:37;102972.81;;;3.77;73.35
17936;BME280;9093;52.062;4.508;2023-03-03T06:27:18;102979.00;;;3.79;73.41
17936;BME280;9093;52.062;4.508;2023-03-03T06:29:58;102977.22;;;3.78;73.18
17936;BME280;9093;52.062;4.508;2023-03-03T06:32:39;102979.00;;;3.79;73.18
17936;BME280;9093;52.062;4.508;2023-03-03T06:35:19;102979.84;;;3.80;73.62
17936;BME280;9093;52.062;4.508;2023-03-03T06:37:59;102979.00;;;3.82;73.56
17936;BME280;9093;52.062;4.508;2023-03-03T06:40:40;102984.31;;;3.84;73.51
17936;BME280;9093;52.062;4.508;2023-03-03T06:43:20;102991.38;;;3.86;73.50
17936;BME280;9093;52.062;4.508;2023-03-03T06:46:01;102986.09;;;3.88;73.69
17936;BME280;9093;52.062;4.508;2023-03-03T06:48:41;102984.34;;;3.88;73.74
17936;BME280;9093;52.062;4.508;2023-03-03T06:51:33;103001.09;;;3.90;73.47
17936;BME280;9093;52.062;4.508;2023-03-03T06:54:19;103001.13;;;3.92;73.35
17936;BME280;9093;52.062;4.508;2023-03-03T06:57:06;102998.47;;;3.93;73.64
17936;BME280;9093;52.062;4.508;2023-03-03T06:59:56;102998.53;;;3.96;73.77
17936;BME280;9093;52.062;4.508;2023-03-03T07:02:36;102996.75;;;3.98;73.70
17936;BME280;9093;52.062;4.508;2023-03-03T07:05:17;103000.28;;;4.00;73.57
17936;BME280;9093;52.062;4.508;2023-03-03T07:07:57;102998.56;;;4.02;73.51
17936;BME280;9093;52.062;4.508;2023-03-03T07:10:38;103015.31;;;4.04;73.89
17936;BME280;9093;52.062;4.508;2023-03-03T07:13:26;103004.75;;;4.08;73.61
17936;BME280;9093;52.062;4.508;2023-03-03T07:16:11;103014.47;;;4.12;73.71
17936;BME280;9093;52.062;4.508;2023-03-03T07:18:56;103013.66;;;4.16;73.72
17936;BME280;9093;52.062;4.508;2023-03-03T07:21:40;103022.47;;;4.19;73.95
17936;BME280;9093;52.062;4.508;2023-03-03T07:24:28;103026.03;;;4.21;73.55
17936;BME280;9093;52.062;4.508;2023-03-03T07:27:12;103018.09;;;4.23;73.60
17936;BME280;9093;52.062;4.508;2023-03-03T07:30:17;103021.63;;;4.26;73.63
17936;BME280;9093;52.062;4.508;2023-03-03T07:32:59;103034.00;;;4.29;73.72
17936;BME280;9093;52.062;4.508;2023-03-03T07:38:36;103027.00;;;4.37;73.72
17936;BME280;9093;52.062;4.508;2023-03-03T07:41:18;103024.41;;;4.41;73.38
17936;BME280;9093;52.062;4.508;2023-03-03T07:44:06;103032.34;;;4.46;73.78
17936;BME280;9093;52.062;4.508;2023-03-03T07:46:52;103039.44;;;4.50;73.75
17936;BME280;9093;52.062;4.508;2023-03-03T07:49:35;103040.38;;;4.55;73.73
17936;BME280;9093;52.062;4.508;2023-03-03T07:52:40;103041.28;;;4.60;73.67
17936;BME280;9093;52.062;4.508;2023-03-03T07:55:38;103041.31;;;4.66;73.64
17936;BME280;9093;52.062;4.508;2023-03-03T07:58:36;103041.34;;;4.72;73.97
17936;BME280;9093;52.062;4.508;2023-03-03T08:01:38;103041.38;;;4.78;73.86
17936;BME280;9093;52.062;4.508;2023-03-03T08:04:22;103042.25;;;4.83;73.91
17936;BME280;9093;52.062;4.508;2023-03-03T08:07:10;103054.66;;;4.86;74.06
17936;BME280;9093;52.062;4.508;2023-03-03T08:09:59;103053.78;;;4.92;73.86
17936;BME280;9093;52.062;4.508;2023-03-03T08:12:40;103052.03;;;4.97;73.88
17936;BME280;9093;52.062;4.508;2023-03-03T08:15:30;103051.19;;;4.99;74.27
17936;BME280;9093;52.062;4.508;2023-03-03T08:18:22;103059.16;;;5.05;74.09
17936;BME280;9093;52.062;4.508;2023-03-03T08:23:48;103067.13;;;5.16;74.17
17936;BME280;9093;52.062;4.508;2023-03-03T08:26:30;103070.69;;;5.18;73.99
17936;BME280;9093;52.062;4.508;2023-03-03T08:29:11;103080.38;;;5.20;74.06
17936;BME280;9093;52.062;4.508;2023-03-03T08:31:52;103081.28;;;5.24;74.07
17936;BME280;9093;52.062;4.508;2023-03-03T08:34:32;103074.25;;;5.31;74.00
17936;BME280;9093;52.062;4.508;2023-03-03T08:37:13;103085.75;;;5.37;74.04
17936;BME280;9093;52.062;4.508;2023-03-03T08:39:53;103082.25;;;5.43;74.34
17936;BME280;9093;52.062;4.508;2023-03-03T08:42:33;103077.84;;;5.48;74.07
17936;BME280;9093;52.062;4.508;2023-03-03T08:45:14;103085.78;;;5.52;74.32
17936;BME280;9093;52.062;4.508;2023-03-03T08:47:54;103090.22;;;5.58;74.43
17936;BME280;9093;52.062;4.508;2023-03-03T08:50:35;103092.91;;;5.62;74.22
17936;BME280;9093;52.062;4.508;2023-03-03T08:53:16;103087.59;;;5.67;74.22
17936;BME280;9093;52.062;4.508;2023-03-03T08:55:56;103093.81;;;5.74;74.17
17936;BME280;9093;52.062;4.508;2023-03-03T08:58:37;103085.84;;;5.80;74.28
17936;BME280;9093;52.062;4.508;2023-03-03T09:01:18;103087.63;;;5.87;74.44
17936;BME280;9093;52.062;4.508;2023-03-03T09:03:59;103095.63;;;5.93;74.30
17936;BME280;9093;52.062;4.508;2023-03-03T09:06:39;103089.44;;;5.97;74.62
17936;BME280;9093;52.062;4.508;2023-03-03T09:09:19;103082.38;;;6.02;74.62
17936;BME280;9093;52.062;4.508;2023-03-03T09:12:16;103088.56;;;6.10;74.32
17936;BME280;9093;52.062;4.508;2023-03-03T09:14:59;103080.63;;;6.13;74.47
17936;BME280;9093;52.062;4.508;2023-03-03T09:17:46;103089.47;;;6.18;74.56
17936;BME280;9093;52.062;4.508;2023-03-03T09:20:36;103077.06;;;6.14;74.27
17936;BME280;9093;52.062;4.508;2023-03-03T09:29:28;103089.44;;;5.97;74.53
17936;BME280;9093;52.062;4.508;2023-03-03T09:32:32;103084.16;;;5.94;74.30
17936;BME280;9093;52.062;4.508;2023-03-03T09:35:32;103085.00;;;5.94;74.38
17936;BME280;9093;52.062;4.508;2023-03-03T09:38:29;103082.38;;;5.96;74.24
17936;BME280;9093;52.062;4.508;2023-03-03T09:41:15;103089.47;;;6.00;74.31
17936;BME280;9093;52.062;4.508;2023-03-03T09:44:24;103090.31;;;5.97;74.15
17936;BME280;9093;52.062;4.508;2023-03-03T09:47:22;103092.97;;;6.02;73.90
17936;BME280;9093;52.062;4.508;2023-03-03T09:56:29;103090.31;;;5.97;73.87
17936;BME280;9093;52.062;4.508;2023-03-03T10:12:37;103093.00;;;6.11;73.84
17936;BME280;9093;52.062;4.508;2023-03-03T10:18:28;103090.31;;;6.20;73.54
17936;BME280;9093;52.062;4.508;2023-03-03T10:21:13;103095.63;;;6.26;73.87
17936;BME280;9093;52.062;4.508;2023-03-03T10:26:50;103086.78;;;6.33;73.70
17936;BME280;9093;52.062;4.508;2023-03-03T10:35:45;103085.88;;;6.59;73.67
17936;BME280;9093;52.062;4.508;2023-03-03T10:41:51;103092.94;;;6.75;73.30
17936;BME280;9093;52.062;4.508;2023-03-03T10:50:29;103084.03;;;7.00;73.16
17936;BME280;9093;52.062;4.508;2023-03-03T10:57:49;103082.19;;;7.08;73.37
17936;BME280;9093;52.062;4.508;2023-03-03T11:06:10;103089.28;;;7.09;73.26
17936;BME280;9093;52.062;4.508;2023-03-03T11:09:07;103082.22;;;7.05;72.96
17936;BME280;9093;52.062;4.508;2023-03-03T11:12:07;103087.53;;;7.02;72.97
17936;BME280;9093;52.062;4.508;2023-03-03T11:21:09;103088.47;;;6.95;73.03
17936;BME280;9093;52.062;4.508;2023-03-03T11:23:59;103084.91;;;6.98;72.85
17936;BME280;9093;52.062;4.508;2023-03-03T11:26:56;103088.44;;;7.01;72.78
17936;BME280;9093;52.062;4.508;2023-03-03T11:33:17;103080.44;;;7.13;72.94
17936;BME280;9093;52.062;4.508;2023-03-03T11:36:20;103086.59;;;7.18;72.91
17936;BME280;9093;52.062;4.508;2023-03-03T11:39:06;103084.78;;;7.33;72.76
17936;BME280;9093;52.062;4.508;2023-03-03T11:44:43;103077.56;;;7.57;72.68
17936;BME280;9093;52.062;4.508;2023-03-03T11:47:38;103077.44;;;7.76;72.34
17936;BME280;9093;52.062;4.508;2023-03-03T11:56:05;103069.97;;;8.25;72.32
17936;BME280;9093;52.062;4.508;2023-03-03T11:59:08;103068.97;;;8.38;72.56
17936;BME280;9093;52.062;4.508;2023-03-03T12:02:00;103074.25;;;8.47;72.27
17936;BME280;9093;52.062;4.508;2023-03-03T12:19:30;103049.13;;;8.72;72.18
17936;BME280;9093;52.062;4.508;2023-03-03T12:31:30;103036.91;;;9.26;71.73
17936;BME280;9093;52.062;4.508;2023-03-03T12:40:02;103037.41;;;9.53;71.52
17936;BME280;9093;52.062;4.508;2023-03-03T12:45:54;103028.47;;;9.55;71.72
17936;BME280;9093;52.062;4.508;2023-03-03T12:48:44;103032.06;;;9.54;71.73
17936;BME280;9093;52.062;4.508;2023-03-03T12:55:07;103034.59;;;9.62;71.62
17936;BME280;9093;52.062;4.508;2023-03-03T13:09:54;103028.06;;;9.83;70.79
17936;BME280;9093;52.062;4.508;2023-03-03T13:12:47;103027.03;;;9.91;70.77
17936;BME280;9093;52.062;4.508;2023-03-03T13:15:33;103031.38;;;9.97;70.54
17936;BME280;9093;52.062;4.508;2023-03-03T13:18:45;103026.16;;;9.91;70.55
17936;BME280;9093;52.062;4.508;2023-03-03T13:22:05;103022.69;;;9.86;70.45
17936;BME280;9093;52.062;4.508;2023-03-03T13:25:00;103026.28;;;9.83;70.32
17936;BME280;9093;52.062;4.508;2023-03-03T13:27:44;103020.91;;;9.85;69.93
17936;BME280;9093;52.062;4.508;2023-03-03T13:30:34;103020.94;;;9.82;70.02
17936;BME280;9093;52.062;4.508;2023-03-03T13:33:26;103021.00;;;9.79;69.91
17936;BME280;9093;52.062;4.508;2023-03-03T13:36:08;103019.16;;;9.84;69.66
17936;BME280;9093;52.062;4.508;2023-03-03T13:38:52;103015.56;;;9.85;69.56
17936;BME280;9093;52.062;4.508;2023-03-03T13:41:45;103029.75;;;9.87;69.63
17936;BME280;9093;52.062;4.508;2023-03-03T13:44:42;103020.81;;;9.92;69.55
17936;BME280;9093;52.062;4.508;2023-03-03T13:47:47;103020.75;;;9.94;69.46
17936;BME280;9093;52.062;4.508;2023-03-03T13:50:37;103026.03;;;9.97;68.94
17936;BME280;9093;52.062;4.508;2023-03-03T14:11:10;103005.91;;;9.78;68.09
17936;BME280;9093;52.062;4.508;2023-03-03T14:16:53;103007.66;;;9.79;67.85
17936;BME280;9093;52.062;4.508;2023-03-03T14:20:13;103014.81;;;9.77;68.05
17936;BME280;9093;52.062;4.508;2023-03-03T14:22:58;103009.44;;;9.80;67.84
17936;BME280;9093;52.062;4.508;2023-03-03T14:25:58;103008.56;;;9.78;67.74
17936;BME280;9093;52.062;4.508;2023-03-03T14:28:46;103009.47;;;9.77;67.64
17936;BME280;9093;52.062;4.508;2023-03-03T14:31:41;103007.78;;;9.73;67.54
17936;BME280;9093;52.062;4.508;2023-03-03T14:40:29;103005.94;;;9.75;67.43
17936;BME280;9093;52.062;4.508;2023-03-03T14:49:29;103003.56;;;9.56;67.11
17936;BME280;9093;52.062;4.508;2023-03-03T14:54:58;103005.31;;;9.60;66.89
17936;BME280;9093;52.062;4.508;2023-03-03T14:57:41;102998.13;;;9.62;66.82
17936;BME280;9093;52.062;4.508;2023-03-03T15:00:32;103008.81;;;9.62;66.66
17936;BME280;9093;52.062;4.508;2023-03-03T15:03:26;103000.91;;;9.56;66.41
17936;BME280;9093;52.062;4.508;2023-03-03T15:06:10;102997.41;;;9.54;66.36
17936;BME280;9093;52.062;4.508;2023-03-03T15:08:54;102991.19;;;9.52;66.29
17936;BME280;9093;52.062;4.508;2023-03-03T15:11:35;102992.16;;;9.48;66.07
17936;BME280;9093;52.062;4.508;2023-03-03T15:14:17;102993.06;;;9.46;65.86
17936;BME280;9093;52.062;4.508;2023-03-03T15:26:13;102986.94;;;9.39;65.35
17936;BME280;9093;52.062;4.508;2023-03-03T15:32:32;102985.16;;;9.40;65.15
17936;BME280;9093;52.062;4.508;2023-03-03T15:35:56;102975.50;;;9.33;65.17
17936;BME280;9093;52.062;4.508;2023-03-03T15:38:47;102977.25;;;9.35;65.40
17936;BME280;9093;52.062;4.508;2023-03-03T15:41:40;102972.75;;;9.37;65.11
17936;BME280;9093;52.062;4.508;2023-03-03T15:44:38;102971.84;;;9.38;65.16
17936;BME280;9093;52.062;4.508;2023-03-03T15:47:49;102980.81;;;9.34;64.90
17936;BME280;9093;52.062;4.508;2023-03-03T15:50:46;102974.59;;;9.32;64.75
17936;BME280;9093;52.062;4.508;2023-03-03T15:53:49;102974.69;;;9.27;64.66
17936;BME280;9093;52.062;4.508;2023-03-03T15:56:43;102972.03;;;9.26;64.79
17936;BME280;9093;52.062;4.508;2023-03-03T16:02:23;102970.41;;;9.16;64.63
17936;BME280;9093;52.062;4.508;2023-03-03T16:07:58;102975.78;;;9.13;64.51
17936;BME280;9093;52.062;4.508;2023-03-03T16:10:49;102974.94;;;9.09;64.50
17936;BME280;9093;52.062;4.508;2023-03-03T16:16:37;102981.34;;;8.93;64.47
17936;BME280;9093;52.062;4.508;2023-03-03T16:19:39;102991.19;;;8.88;64.28
17936;BME280;9093;52.062;4.508;2023-03-03T16:22:44;102993.94;;;8.82;64.36
17936;BME280;9093;52.062;4.508;2023-03-03T16:28:51;102984.25;;;8.75;64.24
17936;BME280;9093;52.062;4.508;2023-03-03T16:31:36;102994.91;;;8.78;64.24
17936;BME280;9093;52.062;4.508;2023-03-03T16:37:21;102985.19;;;8.72;63.89
17936;BME280;9093;52.062;4.508;2023-03-03T16:40:19;102987.88;;;8.69;63.94
17936;BME280;9093;52.062;4.508;2023-03-03T16:45:45;102989.72;;;8.64;63.71
17936;BME280;9093;52.062;4.508;2023-03-03T16:52:05;102987.31;;;8.41;63.58
17936;BME280;9093;52.062;4.508;2023-03-03T16:54:54;102981.13;;;8.39;63.91
17936;BME280;9093;52.062;4.508;2023-03-03T16:58:07;102994.50;;;8.32;63.62
17936;BME280;9093;52.062;4.508;2023-03-03T17:03:56;102992.81;;;8.22;63.89
17936;BME280;9093;52.062;4.508;2023-03-03T17:18:59;103001.94;;;7.90;63.54
17936;BME280;9093;52.062;4.508;2023-03-03T17:24:59;103002.03;;;7.81;63.79
17936;BME280;9093;52.062;4.508;2023-03-03T17:27:55;103007.38;;;7.81;63.70
17936;BME280;9093;52.062;4.508;2023-03-03T17:39:29;103016.28;;;7.74;63.95
17936;BME280;9093;52.062;4.508;2023-03-03T17:45:09;103023.38;;;7.72;63.83
17936;BME280;9093;52.062;4.508;2023-03-03T17:57:01;103034.97;;;7.62;64.07
17936;BME280;9093;52.062;4.508;2023-03-03T18:03:19;103043.00;;;7.56;64.26
17936;BME280;9093;52.062;4.508;2023-03-03T18:19:09;103042.16;;;7.49;64.17
17936;BME280;9093;52.062;4.508;2023-03-03T18:27:32;103039.50;;;7.48;63.98
17936;BME280;9093;52.062;4.508;2023-03-03T18:30:20;103037.72;;;7.47;64.33
17936;BME280;9093;52.062;4.508;2023-03-03T18:33:11;103042.16;;;7.46;64.06
17936;BME280;9093;52.062;4.508;2023-03-03T18:36:08;103044.84;;;7.45;64.29
17936;BME280;9093;52.062;4.508;2023-03-03T18:38:54;103049.28;;;7.46;64.22
17936;BME280;9093;52.062;4.508;2023-03-03T18:42:04;103051.94;;;7.43;64.26
17936;BME280;9093;52.062;4.508;2023-03-03T18:44:47;103050.16;;;7.45;63.99
17936;BME280;9093;52.062;4.508;2023-03-03T18:50:43;103054.59;;;7.43;64.09
17936;BME280;9093;52.062;4.508;2023-03-03T18:53:28;103058.13;;;7.43;64.31
17936;BME280;9093;52.062;4.508;2023-03-03T18:56:10;103069.66;;;7.44;64.28
17936;BME280;9093;52.062;4.508;2023-03-03T18:58:50;103072.31;;;7.44;64.15
17936;BME280;9093;52.062;4.508;2023-03-03T19:04:16;103064.34;;;7.44;63.93
17936;BME280;9093;52.062;4.508;2023-03-03T19:12:55;103060.81;;;7.39;64.20
17936;BME280;9093;52.062;4.508;2023-03-03T19:15:42;103062.59;;;7.37;64.34
17936;BME280;9093;52.062;4.508;2023-03-03T19:18:24;103067.03;;;7.38;64.21
17936;BME280;9093;52.062;4.508;2023-03-03T19:24:03;103065.25;;;7.38;64.22
17936;BME280;9093;52.062;4.508;2023-03-03T19:27:14;103063.50;;;7.37;64.30
17936;BME280;9093;52.062;4.508;2023-03-03T19:30:10;103059.94;;;7.35;64.32